| time (UTC) | temp C | wind direction | speed KPH | gust KPH | rain 1hr cm | rain 24hr cm | rain mn cm | humidity % | barometer mb |
| 20260504204535 | 26 | 180 | 0.0 | 3.2 | 0.00 | 0.00 | 0.00 | 51 | 1015.0 |
| 20260504203017 | 25 | 190 | 0.0 | 6.4 | 0.00 | 0.00 | 0.00 | 50 | 1015.1 |
| 20260504201515 | 26 | 217 | 0.0 | 3.2 | 0.00 | 0.00 | 0.00 | 52 | 1015.5 |
| 20260504200012 | 25 | 178 | 0.0 | 4.8 | 0.00 | 0.00 | 0.00 | 49 | 1015.8 |
| 20260504194512 | 25 | 242 | 0.0 | 6.4 | 0.00 | 0.00 | 0.00 | 49 | 1016.1 |
| 20260504193008 | 25 | 108 | 0.0 | 4.8 | 0.00 | 0.00 | 0.00 | 52 | 1016.4 |
| 20260504191507 | 25 | 200 | 0.0 | 3.2 | 0.00 | 0.00 | 0.00 | 49 | 1016.5 |
| 20260504190011 | 26 | 194 | 0.0 | 6.4 | 0.00 | 0.00 | 0.00 | 52 | 1016.6 |
| 20260504184506 | 26 | 158 | 1.6 | 4.8 | 0.00 | 0.00 | 0.00 | 47 | 1016.7 |
| 20260504183002 | 26 | 171 | 1.6 | 6.4 | 0.00 | 0.00 | 0.00 | 49 | 1017.0 |
| 20260504181600 | 25 | 223 | 0.0 | 3.2 | 0.00 | 0.00 | 0.00 | 49 | 1017.0 |
| 20260504180137 | 26 | 180 | 0.0 | 3.2 | 0.00 | 0.00 | 0.00 | 50 | 1017.1 |
| 20260504174555 | 25 | 187 | 0.0 | 3.2 | 0.00 | 0.00 | 0.00 | 49 | 1017.2 |
| 20260504173054 | 25 | 180 | 0.0 | 4.8 | 0.00 | 0.00 | 0.00 | 48 | 1017.4 |
| 20260504171553 | 25 | 118 | 0.0 | 6.4 | 0.00 | 0.00 | 0.00 | 48 | 1017.2 |
| 20260504120104 | 11 | 170 | 0.0 | 0.0 | 0.00 | 0.00 | 0.00 | 92 | 1017.7 |
| 20260504081528 | 12 | 170 | 0.0 | 0.0 | 0.00 | 0.00 | 0.00 | 90 | 1017.5 |
| 20260504050115 | 15 | 170 | 0.0 | 0.0 | 0.00 | 0.00 | 0.00 | 84 | 1018.8 |
| 20260504044559 | 15 | 170 | 0.0 | 0.0 | 0.00 | 0.00 | 0.00 | 84 | 1018.8 |
| 20260504043105 | 15 | 170 | 0.0 | 0.0 | 0.00 | 0.00 | 0.00 | 84 | 1018.8 |
| 20260504041559 | 15 | 170 | 0.0 | 0.0 | 0.00 | 0.00 | 0.00 | 84 | 1018.9 |
| 20260504040104 | 15 | 170 | 0.0 | 0.0 | 0.00 | 0.00 | 0.00 | 83 | 1018.9 |
| 20260504034615 | 15 | 170 | 0.0 | 0.0 | 0.00 | 0.00 | 0.00 | 83 | 1018.9 |
| 20260504033103 | 16 | 170 | 0.0 | 0.0 | 0.00 | 0.00 | 0.00 | 83 | 1018.9 |
| 20260504031603 | 16 | 170 | 0.0 | 0.0 | 0.00 | 0.00 | 0.00 | 81 | 1018.9 |
| 20260504030055 | 16 | 170 | 0.0 | 0.0 | 0.00 | 0.00 | 0.00 | 79 | 1018.9 |
| 20260504024558 | 16 | 170 | 0.0 | 0.0 | 0.00 | 0.00 | 0.00 | 78 | 1018.7 |
| 20260504023054 | 16 | 170 | 0.0 | 0.0 | 0.00 | 0.00 | 0.00 | 77 | 1018.6 |
| 20260504021557 | 17 | 170 | 0.0 | 0.0 | 0.00 | 0.00 | 0.00 | 75 | 1018.5 |
| 20260504020103 | 17 | 170 | 0.0 | 0.0 | 0.00 | 0.00 | 0.00 | 74 | 1018.3 |
| 20260504014556 | 17 | 170 | 0.0 | 0.0 | 0.00 | 0.00 | 0.00 | 73 | 1018.1 |
| 20260504013050 | 18 | 170 | 0.0 | 0.0 | 0.00 | 0.00 | 0.00 | 70 | 1018.1 |
| 20260504011550 | 18 | 170 | 0.0 | 0.0 | 0.00 | 0.00 | 0.00 | 67 | 1017.9 |
| 20260504010048 | 19 | 170 | 0.0 | 0.0 | 0.00 | 0.00 | 0.00 | 64 | 1017.7 |
| 20260504004548 | 20 | 170 | 0.0 | 0.0 | 0.00 | 0.00 | 0.00 | 64 | 1017.7 |
| 20260504003048 | 20 | 170 | 0.0 | 0.0 | 0.00 | 0.00 | 0.00 | 62 | 1017.6 |
| 20260504001548 | 21 | 170 | 0.0 | 0.0 | 0.00 | 0.00 | 0.00 | 60 | 1017.5 |
| 20260504000048 | 21 | 170 | 0.0 | 0.0 | 0.00 | 0.00 | 0.00 | 60 | 1017.5 |
| 20260503234544 | 22 | 170 | 0.0 | 0.0 | 0.00 | 0.00 | 0.00 | 58 | 1017.7 |
| 20260503233043 | 22 | 171 | 0.0 | 1.6 | 0.00 | 0.00 | 0.00 | 60 | 1017.7 |
| 20260503231542 | 22 | 171 | 0.0 | 1.6 | 0.00 | 0.00 | 0.00 | 56 | 1017.7 |
| 20260503230047 | 22 | 180 | 0.0 | 1.6 | 0.00 | 0.00 | 0.00 | 58 | 1017.7 |
| 20260503224541 | 23 | 176 | 0.0 | 1.6 | 0.00 | 0.00 | 0.00 | 57 | 1017.8 |
| 20260503223039 | 23 | 176 | 0.0 | 1.6 | 0.00 | 0.00 | 0.00 | 55 | 1017.8 |
| 20260503221537 | 23 | 177 | 0.0 | 3.2 | 0.00 | 0.00 | 0.00 | 51 | 1018.0 |
| 20260503220036 | 24 | 205 | 0.0 | 1.6 | 0.00 | 0.00 | 0.00 | 51 | 1018.1 |
| 20260503214541 | 25 | 205 | 0.0 | 3.2 | 0.00 | 0.00 | 0.00 | 51 | 1018.4 |
| 20260503213031 | 25 | 188 | 0.0 | 3.2 | 0.00 | 0.00 | 0.00 | 49 | 1018.5 |
| 20260503211529 | 25 | 169 | 0.0 | 3.2 | 0.00 | 0.00 | 0.00 | 48 | 1018.8 |
| 20260503210027 | 25 | 267 | 0.0 | 3.2 | 0.00 | 0.00 | 0.00 | 42 | 1019.0 |